Accueil
METAR-TAF:

METAR-TAF

Aéroports :

Nouméa / La Tontouta, Nouvelle-Calédonie

Aéroport international de Nouméa - La Tontouta

latitude: 22-01S, longitude: 166-13E, altitude: 16 m

Observation

Le bulletin a été fait il y a 29 minutes, à 12:00 UTC
Vent calme
Température 19°C
Humidité 100%
Pression 1014 hPa
Visibilité 10 km ou plus
pas de nuages en-dessous de 1500 mètres et pas de cumulonimbus.

METAR: NWWW 231200Z AUTO 00000KT CAVOK 19/19 Q1014 NOSIG

Heure: 23:29 (12:29 UTC)

Prévision

Le bulletin a été fait il y a 1 heure et 29 minutes, à 11:00 UTC
Prévision valable du 23 à 12 UTC au 24 à 12 UTC
Vent 3 kt de direction variable
Visibilité 10 km ou plus
Quelques nuages à une hauteur de 4000 ft
Probabilité 40% :
Temporairement
du 23 à 18 UTC au 24 à 06 UTC
Nuages épars à une hauteur de 2000 ft, Cumulus congestus.
averses de pluie

TAF: NWWW 231100Z 2312/2412 VRB03KT 9999 FEW040 PROB40 TEMPO 2318/2406 SHRA SCT020TCU

Observations et prévisions météorologiques de plus de 4000 aéroports (messages METAR et TAF).

Les stations disponibles sont représentées par des disques jaunes et rouges sur la carte.

Passer la souris dessus pour voir le nom de la station.

Cliquer dessus pour voir les observations et prévisions météorologiques.

Pour changer de carte: cliquez sur les boutons verts avec une croix noire pour zoomer, sur le bouton vert avec un tiret pour effectuer un zoom arrière, ou sur les flèches vertes pour les cartes adjacentes.


METAR-TAF: